Manistique, MI (49854)

5:23 PM EST on December 05, 2016 (GMT -0500)
Schoolcraft County | | Change Station

Elev 686 ft 45.97 °N, 86.17 °W | Updated 8 minutes ago

Scattered Clouds
Scattered Clouds
36 °F
Feels Like 32 °F
N
6
Wind Variable Wind from SW

Today
High -- | Low -- °F
--% Chance of Precip.
Yesterday
High -- | Low -- °F
Precip. -- in
Pressure 29.93 in
Visibility 10.0 miles
Clouds Scattered Clouds 2200 ft
Windchill 32 °F
Dew Point 31 °F
Humidity 82%
Rainfall 0.00 in
Snow Depth Not available.
8:11 AM 5:00 PM
Waxing Crescent, 35% visible
METAR KISQ 052215Z AUTO 22005KT 10SM SCT022 02/00 A2993 RMK AO2 T00241004
Pressure 29.93 in
Visibility 10.0 miles
Clouds Scattered Clouds 2200 ft
Windchill 32 °F
Dew Point 31 °F
Humidity 82%
Rainfall 0.00 in
Snow Depth Not available.
8:11 AM 5:00 PM
Waxing Crescent, 35% visible
METAR KISQ 052215Z AUTO 22005KT 10SM SCT022 02/00 A2993 RMK AO2 T00241004

10-Day Weather Forecast

Almanac

Astronomy

Dec. 05, 2016 Rise Set
Actual Time
Civil Twilight
Nautical Twilight
Astronomical Twilight
Moon
Length of Visible Light
Length of Day
Tomorrow will be .
, % of the Moon is Illuminated

Today's Extremes

State Highs State Lows

Community

WunderPhotos

Upload Photos

1,955,869 photos uploaded!

WunderBlog® & News

Nearby

Air Quality

  Air Quality AQ Index Pollutant
Not available.

Snow Depth

Station Depth Elevation

Earthquake Activity

City Distance Mag. Time & Date
Minimum magnitude displayed is 2.5.

Coastal Water Temperatures

Place Temperature

Stations

Nearby Weather Stations

Station Location Temp. Windchill Dew Point Humidity Wind Precip. Elev Updated Type
                   

Watches & Warnings

There are currently no watches in effect.